Latest Weather Observations for Leonora Airport

IDW60801

Issued at 10:33 am WST Tuesday 22 September 2020 (issued every 10 minutes, with the page automatically refreshed every 10 minutes)

About weather observations | Map of weather stations | Latest weather observations for WA | Other Formats
Station Details ID: 012241 Name: LEONORA AERO Lat: -28.88 Lon: 121.32 Height: 370.0 m
Data from the previous 72 hours. | See also: Recent months at Leonora Airport
Date/Time
WST
Temp
°C
App
Temp
°C
Dew
Point
°C
Rel
Hum
%
Delta-T
°C
Wind Press
QNH
hPa
Press
MSL
hPa
Rain since
9am
mm
Dir  Spd
km/h
Gust
km/h
Spd
kts
Gust
kts
22/10:30am 18.9 14.8 -0.5 27 8.5 SE 11 17 6 9 1023.0 1022.1 0.0
22/10:00am 18.2 14.5 -0.1 29 8.1 ESE 9 17 5 9 1023.2 1022.3 0.0
22/09:30am 17.2 12.7 -0.5 30 7.7 ESE 13 20 7 11 1023.5 1022.7 0.0
22/09:00am 16.4 11.1 -0.3 32 7.2 SE 17 20 9 11 1023.8 1023.0 0.0
22/08:30am 15.6 11.2 0.2 35 6.7 SE 13 19 7 10 1023.7 1022.9 0.0
22/08:00am 14.2 10.1 0.1 38 6.0 SE 11 17 6 9 1023.7 1022.9 0.0
22/07:30am 12.0 8.2 -0.5 42 5.2 S 9 13 5 7 1023.6 1022.8 0.0
22/07:00am 9.8 7.6 -1.3 46 4.4 CALM 0 0 0 0 1023.2 1022.3 0.0
22/06:30am 7.3 5.0 -2.7 49 3.7 CALM 0 0 0 0 1022.8 1021.9 0.0
22/06:00am 5.6 3.1 -3.7 51 3.3 CALM 0 0 0 0 1022.5 1021.6 0.0
22/05:30am 5.9 3.5 -2.9 53 3.2 CALM 0 0 0 0 1022.1 1021.2 0.0
22/05:00am 6.3 4.0 -2.3 54 3.2 CALM 0 0 0 0 1021.7 1020.8 0.0
22/04:30am 6.5 4.2 -2.6 52 3.4 CALM 0 0 0 0 1021.3 1020.4 0.0
22/04:00am 6.6 4.2 -3.3 49 3.6 CALM 0 0 0 0 1020.9 1020.0 0.0
22/03:30am 7.5 5.1 -3.1 47 3.9 CALM 0 0 0 0 1020.7 1019.8 0.0
22/03:00am 8.5 5.5 -1.6 49 3.9 SW 4 7 2 4 1020.7 1019.8 0.0
22/02:30am 8.3 5.3 -1.8 49 3.9 SW 4 7 2 4 1020.8 1019.9 0.0
22/02:00am 8.8 6.5 -2.2 46 4.2 CALM 0 0 0 0 1020.8 1019.9 0.0
22/01:30am 9.5 6.3 -0.7 49 4.1 S 6 6 3 3 1020.6 1019.7 0.0
22/01:00am 9.5 6.2 -1.5 46 4.3 SSE 6 7 3 4 1020.6 1019.7 0.0
22/12:30am 10.4 7.1 -1.0 45 4.6 SSW 6 7 3 4 1020.7 1019.8 0.0
22/12:00am 10.8 7.9 -0.9 44 4.7 S 4 6 2 3 1020.5 1019.6 0.0
 
Date/Time
WST
Temp
°C
App
Temp
°C
Dew
Point
°C
Rel
Hum
%
Delta-T
°C
Wind Press
QNH
hPa
Press
MSL
hPa
Rain since
9am
mm
Dir  Spd
km/h
Gust
km/h
Spd
kts
Gust
kts
21/11:30pm 11.4 7.9 -1.4 41 5.2 S 7 9 4 5 1020.4 1019.5 0.0
21/11:00pm 12.3 8.8 -1.2 39 5.5 S 7 11 4 6 1020.3 1019.4 0.0
21/10:30pm 13.0 8.7 -1.3 37 5.9 S 11 15 6 8 1020.3 1019.4 0.0
21/10:00pm 13.1 8.8 -1.6 36 6.0 S 11 17 6 9 1020.4 1019.5 0.0
21/09:30pm 13.4 9.0 -2.1 34 6.3 SSW 11 15 6 8 1020.5 1019.6 0.0
21/09:00pm 14.3 9.9 -2.1 32 6.7 SSW 11 17 6 9 1020.3 1019.4 0.0
21/08:30pm 14.7 10.4 -1.8 32 6.8 SSW 11 13 6 7 1020.2 1019.3 0.0
21/08:00pm 15.1 11.1 -1.9 31 7.0 SSW 9 11 5 6 1020.1 1019.2 0.0
21/07:30pm 15.9 11.5 -2.1 29 7.5 S 11 11 6 6 1019.8 1018.9 0.0
21/07:00pm 16.8 12.8 -2.3 27 8.0 SSW 9 13 5 7 1019.5 1018.6 0.0
21/06:30pm 17.8 13.1 -1.9 26 8.4 SSW 13 17 7 9 1019.2 1018.3 0.0
21/06:00pm 18.6 13.5 -1.8 25 8.7 SSW 15 20 8 11 1018.9 1018.0 0.0
21/05:30pm 19.4 13.6 -1.7 24 9.1 SSW 19 26 10 14 1018.5 1017.5 0.0
21/05:00pm 20.2 14.7 -2.2 22 9.7 SSW 17 28 9 15 1018.1 1017.2 0.0
21/04:30pm 20.4 15.7 -2.0 22 9.7 WSW 13 26 7 14 1017.8 1016.9 0.0
21/04:00pm 20.7 14.8 -2.4 21 10.0 SW 19 26 10 14 1017.6 1016.7 0.0
21/03:30pm 20.7 15.7 -1.1 23 9.7 SSW 15 22 8 12 1017.5 1016.6 0.0
21/03:00pm 20.3 16.4 -1.5 23 9.5 SSW 9 24 5 13 1017.5 1016.6 0.0
21/02:30pm 20.3 15.3 -0.9 24 9.4 SW 15 28 8 15 1017.5 1016.6 0.0
21/02:00pm 20.4 15.5 -0.8 24 9.4 WSW 15 26 8 14 1017.7 1016.8 0.0
21/01:30pm 19.6 15.2 0.1 27 8.8 W 13 22 7 12 1018.1 1017.2 0.0
21/01:00pm 19.0 14.6 0.1 28 8.4 SSW 13 24 7 13 1018.5 1017.5 0.0
21/12:30pm 18.8 13.6 -0.1 28 8.4 WSW 17 26 9 14 1018.9 1018.0 0.0
21/12:00pm 18.0 12.3 0.6 31 7.8 WSW 20 30 11 16 1019.3 1018.4 0.0
21/11:30am 18.0 14.2 1.5 33 7.5 WSW 11 30 6 16 1019.6 1018.7 0.0
21/11:00am 16.2 12.4 1.5 37 6.6 W 11 22 6 12 1019.9 1019.0 0.0
21/10:30am 15.5 11.3 1.6 39 6.2 SW 13 26 7 14 1020.2 1019.3 0.0
21/10:00am 14.5 10.0 2.4 44 5.5 W 15 24 8 13 1020.5 1019.6 0.0
21/09:30am 14.0 8.8 2.6 46 5.2 WSW 19 28 10 15 1020.7 1019.8 0.0
21/09:00am 13.0 8.2 2.8 50 4.6 SW 17 26 9 14 1020.7 1019.8 0.0
21/08:30am 12.4 7.6 2.6 51 4.4 WSW 17 26 9 14 1020.7 1019.8 0.0
21/08:00am 11.2 6.1 3.0 57 3.6 SW 19 28 10 15 1020.6 1019.7 0.0
21/07:30am 10.0 4.7 2.8 61 3.2 WSW 20 26 11 14 1020.2 1019.3 0.0
21/07:00am 9.6 5.6 2.9 63 2.9 WSW 13 19 7 10 1019.9 1019.0 0.0
21/06:30am 8.5 5.2 2.3 65 2.7 W 9 11 5 6 1019.7 1018.8 0.0
21/06:00am 7.8 4.4 2.1 67 2.4 WNW 9 11 5 6 1019.4 1018.5 0.0
21/05:30am 8.3 4.2 2.5 67 2.5 W 13 17 7 9 1019.3 1018.4 0.0
21/05:00am 8.5 4.8 2.5 66 2.6 WSW 11 15 6 8 1019.1 1018.2 0.0
21/04:30am 8.8 4.7 2.4 64 2.8 W 13 15 7 8 1018.8 1017.9 0.0
21/04:00am 9.4 5.0 2.5 62 3.0 WSW 15 20 8 11 1018.6 1017.6 0.0
21/03:30am 9.7 4.9 2.6 61 3.1 WSW 17 22 9 12 1018.4 1017.4 0.0
21/03:00am 10.1 5.3 2.7 60 3.2 W 17 24 9 13 1018.1 1017.2 0.0
21/02:30am 10.5 6.5 2.6 58 3.5 WSW 13 19 7 10 1017.9 1017.0 0.0
21/02:00am 11.1 6.6 2.4 55 3.8 SW 15 22 8 12 1018.0 1017.1 0.0
21/01:30am 11.4 6.6 2.4 54 4.0 SW 17 24 9 13 1018.0 1017.1 0.0
21/01:00am 11.9 6.5 2.4 52 4.2 SW 20 32 11 17 1017.9 1017.0 0.0
21/12:30am 12.3 7.4 2.2 50 4.5 WSW 17 32 9 17 1017.9 1017.0 0.0
21/12:00am 12.8 7.5 1.8 47 4.8 WSW 19 28 10 15 1018.0 1017.1 0.0
 
Date/Time
WST
Temp
°C
App
Temp
°C
Dew
Point
°C
Rel
Hum
%
Delta-T
°C
Wind Press
QNH
hPa
Press
MSL
hPa
Rain since
9am
mm
Dir  Spd
km/h
Gust
km/h
Spd
kts
Gust
kts
20/11:30pm 13.1 8.1 1.5 45 5.1 WSW 17 26 9 14 1017.9 1017.0 0.0
20/11:00pm 13.7 7.4 1.4 43 5.4 SW 24 33 13 18 1017.7 1016.8 0.0
20/10:30pm 14.2 8.2 0.8 40 5.8 SW 22 35 12 19 1017.5 1016.6 0.0
20/10:00pm 14.6 8.9 0.5 38 6.1 SW 20 30 11 16 1017.6 1016.7 0.0
20/09:30pm 15.3 9.1 -0.1 35 6.6 SW 22 41 12 22 1017.4 1016.5 0.0
20/09:00pm 15.5 10.8 -1.5 31 7.1 SW 13 20 7 11 1017.1 1016.2 0.0
20/08:30pm 16.4 9.9 -2.1 28 7.7 SW 22 32 12 17 1016.8 1015.9 0.0
20/08:00pm 16.7 10.5 -2.9 26 8.1 WSW 20 30 11 16 1016.4 1015.5 0.0
20/07:30pm 17.0 11.4 -3.1 25 8.3 WSW 17 24 9 13 1016.1 1015.1 0.0
20/07:00pm 17.5 10.8 -3.8 23 8.7 WSW 22 32 12 17 1015.6 1014.6 0.0
20/06:30pm 17.9 10.1 -4.1 22 8.9 WSW 28 41 15 22 1015.0 1014.1 0.0
20/06:13pm 18.1 9.5 -4.5 21 9.1 W 32 50 17 27 1014.8 1013.9 0.0
20/06:00pm 18.3 9.7 -4.4 21 9.2 WSW 32 44 17 24 1014.6 1013.7 0.0
20/05:30pm 18.7 9.9 -4.7 20 9.5 WSW 33 52 18 28 1014.4 1013.5 0.0
20/05:06pm 19.1 10.9 -4.4 20 9.6 WSW 30 48 16 26 1014.3 1013.4 0.0
20/05:00pm 19.4 11.2 -4.1 20 9.7 WSW 30 44 16 24 1014.3 1013.4 0.0
20/04:44pm 19.1 9.9 -4.4 20 9.6 WSW 35 54 19 29 1014.1 1013.2 0.0
20/04:30pm 19.4 9.5 -4.1 20 9.7 WSW 39 56 21 30 1014.0 1013.1 0.0
20/04:06pm 19.6 10.1 -3.9 20 9.8 WSW 37 56 20 30 1013.9 1012.9 0.0
20/04:00pm 19.7 9.4 -3.9 20 9.8 W 41 57 22 31 1013.8 1012.8 0.0
20/03:58pm 19.7 9.0 -3.9 20 9.8 W 43 57 23 31 1013.8 1012.8 0.0
20/03:40pm 19.3 10.8 -2.9 22 9.4 WSW 32 50 17 27 1013.7 1012.7 0.0
20/03:30pm 19.1 9.2 -3.7 21 9.5 W 39 57 21 31 1013.7 1012.7 0.0
20/03:25pm 19.5 10.4 -3.4 21 9.6 WSW 35 57 19 31 1013.7 1012.7 0.0
20/03:00pm 19.3 10.2 -3.5 21 9.5 W 35 52 19 28 1013.6 1012.6 0.0
20/02:30pm 19.0 9.9 -3.2 22 9.3 W 35 56 19 30 1013.7 1012.7 0.0
20/02:00pm 19.2 11.1 -3.0 22 9.4 WSW 30 50 16 27 1013.8 1012.8 0.0
20/01:50pm 19.6 11.1 -2.1 23 9.3 WSW 33 54 18 29 1013.8 1012.8 0.0
20/01:30pm 18.7 10.3 -2.3 24 8.9 W 32 44 17 24 1014.1 1013.2 0.0
20/01:00pm 17.6 9.0 -2.6 25 8.4 W 33 54 18 29 1014.4 1013.5 0.0
20/12:33pm 17.4 8.9 -1.8 27 8.2 W 33 56 18 30 1014.6 1013.7 0.0
20/12:30pm 17.4 8.9 -1.8 27 8.2 W 33 43 18 23 1014.7 1013.8 0.0
20/12:13pm 17.7 9.2 -1.5 27 8.2 WSW 33 52 18 28 1015.0 1014.1 0.0
20/12:00pm 17.1 8.6 -2.0 27 8.0 WSW 33 50 18 27 1015.1 1014.2 0.0
20/11:30am 16.5 8.0 -1.6 29 7.7 W 33 52 18 28 1015.6 1014.6 0.0
20/11:01am 15.7 7.4 -1.8 30 7.3 W 32 50 17 27 1016.0 1015.0 0.0
20/11:00am 15.7 7.2 -1.8 30 7.3 W 33 50 18 27 1016.0 1015.0 0.0
20/10:37am 15.6 7.6 -2.3 29 7.4 W 30 48 16 26 1016.1 1015.1 0.0
20/10:30am 15.5 7.9 -2.0 30 7.3 W 28 44 15 24 1016.1 1015.1 0.0
20/10:00am 14.8 6.9 -1.7 32 6.8 W 30 43 16 23 1016.4 1015.5 0.0
20/09:30am 13.9 5.5 -2.5 32 6.6 W 32 43 17 23 1016.6 1015.7 0.0
20/09:11am 13.1 4.6 -2.0 35 6.1 W 33 52 18 28 1016.6 1015.7 0.0
20/09:00am 13.0 4.8 -1.3 37 5.9 WSW 32 44 17 24 1016.7 1015.8 0.0
20/08:30am 12.7 4.6 -0.2 41 5.4 WSW 32 43 17 23 1016.7 1015.8 0.0
20/08:00am 12.1 5.6 0.5 45 4.9 WSW 24 33 13 18 1016.6 1015.7 0.0
20/07:30am 11.0 4.2 0.7 49 4.3 W 26 39 14 21 1016.2 1015.2 0.0
20/07:00am 10.5 3.7 1.1 52 4.0 W 26 37 14 20 1015.8 1014.8 0.0
20/06:30am 10.0 4.6 1.1 54 3.8 W 19 28 10 15 1015.3 1014.4 0.0
20/06:00am 9.8 3.7 0.7 53 3.8 WSW 22 30 12 16 1014.9 1014.0 0.0
20/05:30am 10.0 4.4 1.1 54 3.8 W 20 32 11 17 1014.5 1013.6 0.0
20/05:00am 10.4 4.4 1.0 52 4.0 W 22 32 12 17 1014.0 1013.1 0.0
20/04:30am 10.7 4.7 1.0 51 4.1 WSW 22 32 12 17 1013.9 1012.9 0.0
20/04:00am 11.0 4.2 1.0 50 4.2 WSW 26 39 14 21 1013.4 1012.4 0.0
20/03:30am 11.4 4.2 0.8 48 4.5 WSW 28 41 15 22 1013.3 1012.3 0.0
20/03:00am 11.7 4.1 0.5 46 4.7 WSW 30 41 16 22 1013.2 1012.2 0.0
20/02:49am 11.9 4.7 0.7 46 4.8 WSW 28 46 15 25 1013.2 1012.2 0.0
20/02:30am 12.3 4.1 0.4 44 5.0 WSW 33 48 18 26 1013.0 1012.0 0.0
20/02:24am 12.5 4.5 0.6 44 5.1 WSW 32 48 17 26 1012.9 1011.9 0.0
20/02:00am 12.7 7.6 2.8 51 4.4 SW 19 26 10 14 1012.7 1011.7 0.0
20/01:30am 13.3 6.9 3.4 51 4.5 WSW 26 39 14 21 1012.6 1011.6 0.0
20/01:00am 14.0 7.8 2.0 44 5.4 WSW 24 37 13 20 1012.4 1011.5 0.0
20/12:30am 14.8 8.7 0.3 37 6.3 WSW 22 35 12 19 1012.2 1011.3 0.0
20/12:00am 15.5 7.5 0.1 35 6.7 WSW 32 48 17 26 1012.1 1011.2 0.0
 
Date/Time
WST
Temp
°C
App
Temp
°C
Dew
Point
°C
Rel
Hum
%
Delta-T
°C
Wind Press
QNH
hPa
Press
MSL
hPa
Rain since
9am
mm
Dir  Spd
km/h
Gust
km/h
Spd
kts
Gust
kts
19/11:51pm 15.6 8.4 0.6 36 6.6 WSW 28 48 15 26 1012.0 1011.1 0.0
19/11:30pm 15.9 8.7 0.9 36 6.6 WSW 28 39 15 21 1011.7 1010.8 0.0
19/11:00pm 16.8 9.2 0.5 33 7.2 WSW 30 46 16 25 1011.5 1010.5 0.0
19/10:30pm 17.8 10.4 1.7 34 7.4 WSW 30 48 16 26 1011.1 1010.1 0.0
19/10:00pm 18.3 10.6 2.2 34 7.5 WSW 32 52 17 28 1010.9 1009.9 0.0
19/09:38pm 19.0 11.5 4.4 38 7.1 WSW 33 54 18 29 1010.5 1009.5 0.0
19/09:30pm 19.2 11.3 4.6 38 7.2 WSW 35 46 19 25 1010.4 1009.4 0.0
19/09:00pm 19.8 12.5 5.5 39 7.2 WSW 33 54 18 29 1010.1 1009.1 0.0
19/08:44pm 20.3 13.1 5.9 39 7.3 WSW 33 54 18 29 1009.8 1008.8 0.0
19/08:30pm 20.6 12.8 6.5 40 7.2 WSW 37 54 20 29 1009.5 1008.6 0.0
19/08:17pm 20.9 14.8 6.4 39 7.4 WSW 28 46 15 25 1009.3 1008.4 0.0
19/08:00pm 21.4 14.5 6.5 38 7.7 WSW 32 46 17 25 1009.0 1008.0 0.0
19/07:30pm 22.6 15.6 6.0 34 8.6 WSW 32 46 17 25 1008.3 1007.3 0.0
19/07:23pm 23.0 16.6 5.0 31 9.1 W 28 46 15 25 1008.1 1007.1 0.0
19/07:00pm 23.4 17.3 2.8 26 10.1 W 24 32 13 17 1007.5 1006.5 0.0
19/06:30pm 24.0 17.9 2.8 25 10.4 W 24 39 13 21 1006.9 1005.8 0.0
19/06:00pm 24.4 18.3 2.5 24 10.7 W 24 35 13 19 1006.5 1005.5 0.0
19/05:30pm 25.2 18.5 1.3 21 11.5 W 26 35 14 19 1006.2 1005.2 0.0
19/05:00pm 25.8 17.1 -0.3 18 12.3 W 35 48 19 26 1005.9 1004.9 0.0
19/04:34pm 26.2 18.7 -1.6 16 12.8 WNW 28 46 15 25 1005.8 1004.8 0.0
19/04:30pm 26.1 18.6 -1.7 16 12.7 W 28 43 15 23 1005.8 1004.8 0.0
19/04:00pm 26.2 17.1 -3.4 14 13.2 W 35 48 19 26 1005.8 1004.8 0.0
19/03:30pm 26.8 17.6 -4.9 12 13.8 WNW 35 56 19 30 1005.7 1004.7 0.0
19/03:07pm 26.7 17.6 -7.4 10 14.2 W 33 52 18 28 1005.6 1004.6 0.0
19/03:00pm 26.4 16.9 -7.6 10 14.1 WNW 35 50 19 27 1005.7 1004.7 0.0
19/02:32pm 26.3 17.3 -6.5 11 13.8 W 33 52 18 28 1005.8 1004.8 0.0
19/02:30pm 26.6 17.7 -5.1 12 13.7 W 33 46 18 25 1005.9 1004.9 0.0
19/02:00pm 25.9 16.6 -5.6 12 13.5 W 35 52 19 28 1006.1 1005.1 0.0
19/01:30pm 26.7 16.8 -7.4 10 14.2 W 37 57 20 31 1006.3 1005.3 0.0
19/01:21pm 26.6 17.7 -7.5 10 14.1 W 32 54 17 29 1006.2 1005.2 0.0
19/01:00pm 25.7 15.9 -6.9 11 13.6 WSW 37 54 20 29 1006.4 1005.4 0.0
19/12:31pm 27.0 18.7 -4.8 12 13.9 W 30 48 16 26 1006.3 1005.3 0.0
19/12:30pm 26.1 17.4 -5.5 12 13.5 W 32 48 17 26 1006.3 1005.3 0.0
19/12:16pm 26.4 17.1 -5.3 12 13.6 W 35 54 19 29 1006.4 1005.4 0.0
19/12:00pm 26.6 17.8 -6.2 11 13.9 W 32 46 17 25 1006.4 1005.4 0.0
19/11:35am 25.9 16.4 -8.0 10 13.8 NW 35 54 19 29 1006.7 1005.7 0.0
19/11:30am 26.2 16.7 -7.8 10 13.9 WNW 35 46 19 25 1006.7 1005.7 0.0
19/11:00am 25.9 17.0 -6.8 11 13.7 WNW 32 44 17 24 1007.2 1006.2 0.0

Other formats

Comma delimited format used in spreadsheet applications
http://www.bom.gov.au/fwo/IDW60801/IDW60801.94450.axf

JavaScript Object Notation format (JSON) in row-major order
http://www.bom.gov.au/fwo/IDW60801/IDW60801.94450.json

Data quality

Most of these data are generated automatically and are frequently updated. Quality checks on data are not normally performed. It is possible for incorrect values to appear. Refer to information at About Latest Weather Observations and please check the disclaimer before using these data.